罗盘
风向 的 风向 340° Ottawa / Rockcliffe Airport 9/27
风向 到 风: 4 kt, 阵阵 16 kt, 2 beaufort


4 kt
改变
0 6.000 12.000 18.000 24.000 30.000
FEW 3.200 ft
BKN 24.000 ft
METAR CYND 181900Z 34004G16KT 15SM FEW032 BKN240 26/14 A2983 RMK CU1CI6 CU TR SLP104 DENSITY ALT 1700FT

METAR Ottawa / Rockcliffe Airport - CYRO/YRO

Ottawa / Rockcliffe Airport是Ottawa,加拿大中的中型机场。 该机场有一条跑道: 9/27. 该领域的国际民航组织标志是CYRO 它的国际航空运输协会代码是YRO.

这份报告是针对2022年8月18日 3:00 下午, 当地时间在Ottawa / Gatineau Airport进行的。

机场观察

风向为340°,速度为4 kt。 已测得16 kt的阵风。

可见度为15 mi。

有几云在3.200 ft的高度 和 碎云在24.000 ft的高度。 破损或更高的上限为24.000 ft。

温度和风寒是79 °F。 露点为57 °F,相对湿度为48%。 海平面上的气压为29,83 inHg (QNH)。

白天

今天,太阳从6:07 上午升起,在8:05 下午降落。 这适用于Ottawa / Rockcliffe Airport,世界夏令时可能有所不同。 当地时间与世界标准时间之间的时差为-4 小时。 夏令时目前正在进行中。

公司介绍

在这个机场,你可以找到飞行学校。 本场上唯一已知的公司是Rockcliffe Flying Club。

体会

到Vliegles.nl去找飞行课程,跳伞和其他飞行体验。 浏览页面,了解Ottawa / Rockcliffe Airport附近所有可用的活动。 你也可以使用搜索功能来寻找你所在地附近的特定飞行课程、跳伞或其他飞行体验。

跑道

Id 标题 侧风 逆风 侧风 %
9/27 076°-256° 4-16 kt 99 %

逆风成分最大的方向会被突出显示,并用于横风计算。 这并不一定意味着这个方向在使用。

乌云

3.200 ft FEW 几云
24.000 ft BKN 碎云

温度 & 天气

温度 79 °F
露点 57 °F
相对湿度 48%
Kp-index 1  

评论

SLP104海平面压力为29,84 inHg (29,84 inHg)
CU1CI6 CU TR DENSITY ALT 1700FT

白天

日出
6:06 上午
中午
1:06 下午
日落
8:05 下午 (4h 05m)

小工具

你想在你的网站上有一个关于Ottawa / Rockcliffe Airport的当前航空天气(METAR)的小部件吗?

</> 显示HTML代码

我们和第三方通过cookies跟踪您在我们网站上的上网行为。如果您继续,我们认为您同意我们的cookie政策。 了解更多